Time;durP1;ratioP1;P1;durP2;ratioP2;P2;SDS_P1;SDS_P2;PMS_P1;PMS_P2;Temp;Humidity;BMP_temperature;BMP_pressure;BME280_temperature;BME280_humidity;BME280_pressure;Samples;Min_cycle;Max_cycle;Signal;HPM_P1;HPM_P2
2022/07/06 00:02:00;;;;;;;4.50;3.30;;;;;;;18.71;75.70;100554.39;105952;1273;23981;-78
2022/07/06 00:04:26;;;;;;;4.10;3.00;;;;;;;18.62;75.45;100550.82;106089;1273;22838;-76
2022/07/06 00:06:53;;;;;;;4.10;3.70;;;;;;;18.56;75.64;100554.44;105792;1275;25469;-75
2022/07/06 00:09:19;;;;;;;5.30;3.50;;;;;;;18.55;75.97;100552.68;106030;1273;24233;-77
2022/07/06 00:11:45;;;;;;;4.50;3.30;;;;;;;18.55;75.77;100555.37;106063;1273;22541;-74
2022/07/06 00:14:11;;;;;;;3.30;3.00;;;;;;;18.51;75.81;100552.52;105774;1275;22538;-76
2022/07/06 00:16:38;;;;;;;4.10;2.80;;;;;;;18.44;75.61;100551.15;106043;1273;22532;-81
2022/07/06 00:19:04;;;;;;;4.20;2.80;;;;;;;18.40;75.93;100550.25;106207;1272;24548;-77
2022/07/06 00:21:30;;;;;;;5.00;2.60;;;;;;;18.40;75.82;100548.30;106334;1273;22706;-77
2022/07/06 00:23:56;;;;;;;3.30;2.80;;;;;;;18.43;75.56;100542.46;105650;1278;22672;-78
2022/07/06 00:26:23;;;;;;;5.20;2.90;;;;;;;18.44;75.65;100543.67;105734;1278;22573;-80
2022/07/06 00:28:49;;;;;;;7.00;3.10;;;;;;;18.39;75.41;100536.02;105931;1278;24396;-82
2022/07/06 00:31:15;;;;;;;4.50;2.90;;;;;;;18.46;75.64;100541.30;106119;1278;22596;-81
2022/07/06 00:33:41;;;;;;;2.60;2.40;;;;;;;18.48;75.34;100536.39;106078;1283;25564;-79
2022/07/06 00:36:09;;;;;;;2.90;2.70;;;;;;;18.50;75.41;100535.41;105603;1284;25335;-79
2022/07/06 00:38:35;;;;;;;3.20;2.80;;;;;;;18.52;75.54;100531.75;105324;1284;22833;-79
2022/07/06 00:41:02;;;;;;;4.40;3.10;;;;;;;18.55;75.31;100530.74;105385;1284;26596;-79
2022/07/06 00:43:46;;;;;;;5.90;2.90;;;;;;;18.52;75.30;100525.52;105239;1283;22626;-81
2022/07/06 00:46:12;;;;;;;5.00;3.10;;;;;;;18.52;75.47;100524.81;104974;1284;23027;-82
2022/07/06 00:48:38;;;;;;;3.40;2.90;;;;;;;18.50;75.28;100524.54;105248;1281;23235;-81
2022/07/06 00:51:05;;;;;;;5.90;3.20;;;;;;;18.50;75.36;100525.27;105659;1279;22698;-81
2022/07/06 00:53:31;;;;;;;3.20;3.00;;;;;;;18.51;75.19;100521.48;105703;1281;22701;-79
2022/07/06 00:55:57;;;;;;;7.30;2.90;;;;;;;18.48;75.20;100523.00;105876;1279;25476;-78
2022/07/06 00:58:24;;;;;;;4.80;3.30;;;;;;;18.47;75.23;100520.20;105478;1275;26827;-79
2022/07/06 01:00:51;;;;;;;4.00;2.60;;;;;;;18.47;75.26;100514.30;106298;1272;25346;-79
2022/07/06 01:03:18;;;;;;;3.80;2.90;;;;;;;18.47;75.16;100510.95;105921;1273;22552;-79
2022/07/06 01:05:44;;;;;;;4.00;3.40;;;;;;;18.43;75.09;100503.41;106007;1273;25653;-80
2022/07/06 01:08:12;;;;;;;6.30;3.40;;;;;;;18.42;75.21;100498.63;105654;1278;22626;-82
2022/07/06 01:10:38;;;;;;;3.40;3.00;;;;;;;18.42;75.09;100496.14;105696;1277;24396;-77
2022/07/06 01:13:04;;;;;;;5.70;3.20;;;;;;;18.40;75.17;100498.73;105883;1279;22717;-77
2022/07/06 01:15:30;;;;;;;3.40;2.90;;;;;;;18.36;75.22;100499.27;105832;1276;25654;-78
2022/07/06 01:17:57;;;;;;;3.50;2.60;;;;;;;18.33;75.23;100498.49;105831;1278;22592;-77
2022/07/06 01:20:27;;;;;;;3.90;2.80;;;;;;;18.33;75.10;100494.92;105930;1279;25458;-79
2022/07/06 01:22:56;;;;;;;7.60;3.30;;;;;;;18.35;75.20;100492.34;105905;1279;22554;-76
2022/07/06 01:25:23;;;;;;;5.20;2.80;;;;;;;18.34;75.26;100493.63;105753;1278;22551;-78
2022/07/06 01:27:49;;;;;;;5.30;3.20;;;;;;;18.33;75.30;100494.38;106114;1273;23973;-77
2022/07/06 01:30:18;;;;;;;3.70;3.10;;;;;;;18.32;75.12;100496.73;106007;1274;22547;-77
2022/07/06 01:32:45;;;;;;;2.70;2.30;;;;;;;18.34;75.13;100497.74;106222;1273;24205;-77
2022/07/06 01:35:13;;;;;;;3.40;2.60;;;;;;;18.34;75.03;100497.91;106105;1273;25268;-78
2022/07/06 01:37:40;;;;;;;7.90;2.80;;;;;;;18.35;75.13;100497.88;105999;1273;22882;-77
2022/07/06 01:40:09;;;;;;;5.10;2.90;;;;;;;18.37;75.01;100497.80;106236;1273;22547;-77
2022/07/06 01:42:35;;;;;;;3.50;2.60;;;;;;;18.38;74.86;100497.95;106407;1273;24393;-77
2022/07/06 01:45:04;;;;;;;5.30;2.80;;;;;;;18.38;74.96;100492.77;106198;1274;24243;-82
2022/07/06 01:47:30;;;;;;;2.90;2.30;;;;;;;18.37;74.94;100497.41;106155;1273;25555;-79
2022/07/06 01:50:01;;;;;;;4.80;2.90;;;;;;;18.36;74.83;100496.92;105935;1274;25876;-78
2022/07/06 01:52:30;;;;;;;5.50;2.70;;;;;;;18.37;74.89;100499.57;106008;1274;22635;-78
2022/07/06 01:54:57;;;;;;;3.30;3.00;;;;;;;18.35;74.92;100502.14;106296;1272;26602;-78
2022/07/06 01:57:23;;;;;;;4.40;2.90;;;;;;;18.28;74.63;100501.33;105989;1273;24360;-78
2022/07/06 01:59:49;;;;;;;3.00;2.80;;;;;;;18.19;74.74;100495.09;105865;1274;25344;-77
2022/07/06 02:02:17;;;;;;;7.00;2.50;;;;;;;18.18;74.95;100494.95;105926;1273;22553;-77
2022/07/06 02:04:44;;;;;;;3.80;3.00;;;;;;;18.19;74.99;100496.50;105912;1274;24292;-76
2022/07/06 02:07:10;;;;;;;3.90;2.90;;;;;;;18.18;74.90;100486.77;105781;1274;23972;-79
2022/07/06 02:09:36;;;;;;;4.30;3.30;;;;;;;18.18;75.09;100484.42;105983;1273;25273;-77
2022/07/06 02:12:02;;;;;;;4.30;3.50;;;;;;;18.20;75.14;100486.14;106056;1274;22532;-80
2022/07/06 02:14:29;;;;;;;3.30;3.10;;;;;;;18.18;75.26;100484.98;106002;1273;24235;-76
2022/07/06 02:16:55;;;;;;;3.20;2.80;;;;;;;18.17;75.27;100482.52;105756;1273;22668;-76
2022/07/06 02:19:21;;;;;;;3.40;2.90;;;;;;;18.17;75.22;100481.64;106082;1273;22560;-76
2022/07/06 02:21:47;;;;;;;3.10;2.70;;;;;;;18.17;75.24;100477.15;106073;1274;25583;-75
2022/07/06 02:24:14;;;;;;;3.50;2.90;;;;;;;18.20;75.20;100478.67;105879;1274;22564;-75
2022/07/06 02:26:41;;;;;;;5.50;3.10;;;;;;;18.16;75.01;100485.07;105871;1273;22569;-78
2022/07/06 02:29:07;;;;;;;3.30;3.00;;;;;;;18.14;75.25;100486.21;105953;1273;25457;-80
2022/07/06 02:31:33;;;;;;;5.30;2.40;;;;;;;18.10;75.16;100489.01;106051;1274;22535;-80
2022/07/06 02:34:00;;;;;;;3.30;2.60;;;;;;;18.04;75.22;100488.14;106046;1273;22466;-80
2022/07/06 02:36:27;;;;;;;2.90;2.70;;;;;;;18.05;75.60;100484.39;106062;1272;22695;-78
2022/07/06 02:38:53;;;;;;;3.50;3.00;;;;;;;18.06;75.68;100487.69;106029;1273;22560;-79
2022/07/06 02:41:19;;;;;;;5.20;3.00;;;;;;;18.04;75.77;100488.33;106030;1274;24092;-79
2022/07/06 02:43:46;;;;;;;5.60;3.10;;;;;;;18.07;75.93;100493.20;106032;1274;22544;-81
2022/07/06 02:46:12;;;;;;;5.50;2.50;;;;;;;18.06;76.02;100495.73;106124;1273;22632;-79
2022/07/06 02:48:39;;;;;;;3.40;2.80;;;;;;;18.05;75.78;100499.68;106017;1273;22586;-81
2022/07/06 02:51:05;;;;;;;5.30;3.00;;;;;;;18.07;75.90;100495.86;105966;1274;24339;-80
2022/07/06 02:53:31;;;;;;;3.90;3.20;;;;;;;18.09;75.96;100492.22;106066;1274;22544;-79
2022/07/06 02:55:58;;;;;;;5.40;3.30;;;;;;;18.09;75.93;100494.20;105988;1273;22695;-75
2022/07/06 02:58:24;;;;;;;3.90;3.30;;;;;;;18.11;76.05;100490.58;105921;1274;22707;-78
2022/07/06 03:00:52;;;;;;;5.20;3.10;;;;;;;18.10;76.10;100487.57;106001;1273;22571;-78
2022/07/06 03:03:18;;;;;;;4.00;2.90;;;;;;;18.11;76.16;100483.45;106159;1272;25492;-76
2022/07/06 03:05:46;;;;;;;3.00;2.70;;;;;;;18.12;76.20;100479.31;106040;1273;22652;-77
2022/07/06 03:08:12;;;;;;;4.40;3.30;;;;;;;18.13;76.03;100476.80;105904;1276;24302;-79
2022/07/06 03:10:40;;;;;;;3.90;2.90;;;;;;;18.11;75.90;100476.88;105627;1279;24552;-86
2022/07/06 03:13:06;;;;;;;3.00;2.50;;;;;;;18.11;75.98;100474.54;105525;1279;22569;-80
2022/07/06 03:15:33;;;;;;;2.80;2.40;;;;;;;18.10;76.01;100475.27;105374;1280;22563;-79
2022/07/06 03:17:59;;;;;;;3.10;2.30;;;;;;;18.11;75.97;100474.54;105793;1278;22644;-82
2022/07/06 03:20:25;;;;;;;3.00;2.70;;;;;;;18.09;76.04;100479.42;105800;1279;24308;-81
2022/07/06 03:22:52;;;;;;;3.90;2.90;;;;;;;18.07;75.87;100476.44;105886;1279;25356;-78
2022/07/06 03:25:18;;;;;;;3.00;2.80;;;;;;;18.03;75.94;100471.23;105661;1279;25345;-80
2022/07/06 03:27:44;;;;;;;4.00;2.80;;;;;;;18.05;76.04;100465.48;105647;1279;23465;-79
2022/07/06 03:30:12;;;;;;;3.60;2.50;;;;;;;18.05;76.09;100459.04;106509;1274;23965;-78
2022/07/06 03:32:42;;;;;;;2.70;2.50;;;;;;;18.08;75.74;100457.89;106153;1273;24470;-80
2022/07/06 03:35:09;;;;;;;6.50;2.80;;;;;;;18.08;75.75;100462.88;106414;1271;24470;-78
2022/07/06 03:37:36;;;;;;;4.00;2.80;;;;;;;18.10;76.09;100466.73;106521;1271;25446;-78
2022/07/06 03:40:03;;;;;;;5.00;2.90;;;;;;;18.12;76.17;100467.75;106434;1271;24969;-80
2022/07/06 03:42:29;;;;;;;2.70;2.50;;;;;;;18.12;76.03;100468.63;106155;1271;25707;-83
2022/07/06 03:44:55;;;;;;;3.00;2.50;;;;;;;18.13;75.95;100462.19;106120;1272;25511;-80
2022/07/06 03:47:22;;;;;;;3.90;2.50;;;;;;;18.15;75.76;100461.94;106252;1272;22636;-80
2022/07/06 03:49:49;;;;;;;2.80;2.30;;;;;;;18.17;75.84;100457.38;106173;1272;22708;-78
2022/07/06 03:52:15;;;;;;;2.80;2.60;;;;;;;18.21;75.59;100458.67;106148;1271;22578;-77
2022/07/06 03:54:45;;;;;;;3.00;2.20;;;;;;;18.20;75.49;100455.13;106372;1271;25398;-83
2022/07/06 03:57:13;;;;;;;2.60;2.40;;;;;;;18.23;75.51;100455.92;106257;1273;25303;-79
2022/07/06 03:59:40;;;;;;;3.20;2.10;;;;;;;18.25;75.58;100452.42;106272;1271;24272;-82
2022/07/06 04:02:06;;;;;;;4.30;2.30;;;;;;;18.26;75.46;100457.05;106208;1272;26087;-79
2022/07/06 04:04:34;;;;;;;3.90;2.60;;;;;;;18.26;75.26;100463.82;106264;1271;24357;-78
2022/07/06 04:07:01;;;;;;;3.40;2.60;;;;;;;18.26;75.31;100462.20;106255;1271;25338;-77
2022/07/06 04:09:27;;;;;;;3.00;2.40;;;;;;;18.27;75.50;100462.13;106057;1275;25481;-83
2022/07/06 04:11:53;;;;;;;4.10;2.30;;;;;;;18.27;75.45;100454.30;106439;1272;25417;-82
2022/07/06 04:14:20;;;;;;;2.30;2.10;;;;;;;18.29;75.62;100456.56;106416;1271;22540;-85
2022/07/06 04:16:46;;;;;;;2.90;2.10;;;;;;;18.30;75.73;100454.17;106148;1272;22566;-82
2022/07/06 04:19:13;;;;;;;3.10;1.70;;;;;;;18.32;75.72;100451.81;106209;1271;22686;-77
2022/07/06 04:21:39;;;;;;;2.60;2.30;;;;;;;18.33;75.47;100449.09;106008;1271;333641;-83
2022/07/06 04:24:06;;;;;;;2.50;2.20;;;;;;;18.34;75.45;100445.86;106413;1271;22677;-80
2022/07/06 04:26:32;;;;;;;2.70;2.40;;;;;;;18.36;75.53;100439.69;106087;1271;26539;-78
2022/07/06 04:28:59;;;;;;;3.00;2.30;;;;;;;18.36;75.58;100444.67;106483;1272;24304;-77
2022/07/06 04:31:25;;;;;;;2.50;2.30;;;;;;;18.37;75.60;100443.21;107026;1273;25255;-77
2022/07/06 04:33:52;;;;;;;3.10;2.80;;;;;;;18.36;75.50;100445.96;107520;1271;23718;-77
2022/07/06 04:36:18;;;;;;;4.30;2.50;;;;;;;18.36;75.54;100443.08;107935;1273;24049;-76
2022/07/06 04:38:47;;;;;;;4.80;2.90;;;;;;;18.39;75.54;100442.78;107486;1273;22492;-75
2022/07/06 04:41:14;;;;;;;3.50;2.60;;;;;;;18.41;75.59;100437.19;108296;1271;22547;-77
2022/07/06 04:43:41;;;;;;;5.80;3.10;;;;;;;18.40;75.49;100441.48;108503;1275;25416;-77
2022/07/06 04:46:08;;;;;;;4.20;2.80;;;;;;;18.42;75.52;100444.09;107153;1271;22501;-78
2022/07/06 04:48:38;;;;;;;2.80;2.50;;;;;;;18.45;75.53;100443.64;106612;1271;25334;-80
2022/07/06 04:51:06;;;;;;;6.00;2.90;;;;;;;18.50;75.55;100445.02;106285;1273;22565;-77
2022/07/06 04:53:32;;;;;;;3.90;2.70;;;;;;;18.55;75.41;100441.98;106375;1273;22637;-78
2022/07/06 04:55:58;;;;;;;3.40;2.80;;;;;;;18.57;75.16;100443.66;106241;1275;24025;-75
2022/07/06 04:58:25;;;;;;;4.60;2.70;;;;;;;18.53;75.28;100440.80;107084;1273;25351;-74
2022/07/06 05:00:53;;;;;;;2.50;2.30;;;;;;;18.54;75.10;100444.66;106763;1273;24351;-76
2022/07/06 05:03:20;;;;;;;3.00;2.60;;;;;;;18.53;75.03;100440.96;106189;1273;22505;-76
2022/07/06 05:05:46;;;;;;;4.10;2.60;;;;;;;18.54;75.23;100440.89;105825;1278;23011;-77
2022/07/06 05:08:13;;;;;;;4.30;3.00;;;;;;;18.56;75.16;100440.30;105816;1276;22565;-76
2022/07/06 05:10:39;;;;;;;2.80;2.50;;;;;;;18.55;75.14;100439.63;105856;1276;25274;-77
2022/07/06 05:13:05;;;;;;;4.30;2.80;;;;;;;18.54;74.94;100440.54;106111;1278;25132;-76
2022/07/06 05:15:32;;;;;;;2.80;2.40;;;;;;;18.56;74.70;100446.73;106142;1277;22603;-76
2022/07/06 05:17:58;;;;;;;2.60;2.40;;;;;;;18.55;74.67;100443.90;106505;1276;25347;-80
2022/07/06 05:20:25;;;;;;;4.90;3.30;;;;;;;18.57;74.68;100442.42;106208;1278;22723;-76
2022/07/06 05:22:51;;;;;;;7.10;2.90;;;;;;;18.58;74.73;100443.63;105885;1278;22542;-82
2022/07/06 05:25:21;;;;;;;3.10;2.80;;;;;;;18.54;74.73;100439.51;105931;1275;22547;-83
2022/07/06 05:27:47;;;;;;;4.20;2.90;;;;;;;18.53;74.65;100437.39;105796;1275;25275;-77
2022/07/06 05:30:15;;;;;;;4.70;2.90;;;;;;;18.53;74.75;100442.02;105808;1276;25438;-77
2022/07/06 05:32:41;;;;;;;3.20;2.40;;;;;;;18.54;74.85;100444.48;105927;1276;22528;-74
2022/07/06 05:35:08;;;;;;;4.00;2.90;;;;;;;18.59;74.64;100448.42;106029;1273;23203;-78
2022/07/06 05:37:55;;;;;;;4.20;3.30;;;;;;;18.59;74.59;100445.35;105945;1275;22548;-84
2022/07/06 05:40:22;;;;;;;3.40;2.90;;;;;;;18.59;74.50;100444.46;106119;1274;22770;-78
2022/07/06 05:42:48;;;;;;;5.40;3.20;;;;;;;18.63;74.70;100447.32;106030;1275;25276;-77
2022/07/06 05:45:14;;;;;;;6.10;3.20;;;;;;;18.67;74.58;100447.33;106096;1273;22566;-76
2022/07/06 05:50:26;;;;;;;6.50;4.50;;;;;;;18.76;74.43;100453.56;106011;1274;24760;-74
2022/07/06 05:53:00;;;;;;;5.60;4.60;;;;;;;18.75;74.39;100450.59;106118;1274;25556;-76
2022/07/06 05:55:36;;;;;;;9.60;4.80;;;;;;;18.75;74.47;100456.61;105893;1275;22550;-79
2022/07/06 05:58:02;;;;;;;5.80;4.90;;;;;;;18.78;74.67;100461.67;106102;1273;22539;-78
2022/07/06 06:00:30;;;;;;;9.20;4.30;;;;;;;18.78;74.51;100458.84;105941;1273;22554;-76
2022/07/06 06:02:58;;;;;;;6.80;4.30;;;;;;;18.66;74.47;100455.23;105779;1276;22909;-77
2022/07/06 06:05:25;;;;;;;5.90;3.50;;;;;;;18.62;74.44;100458.42;105936;1273;24240;-77
2022/07/06 06:07:54;;;;;;;4.20;3.50;;;;;;;18.61;74.25;100467.93;105838;1273;22558;-77
2022/07/06 06:10:24;;;;;;;3.90;3.30;;;;;;;18.61;73.79;100467.39;105920;1273;25398;-77
2022/07/06 06:12:52;;;;;;;5.70;3.20;;;;;;;18.58;73.45;100466.25;106036;1274;22563;-76
2022/07/06 06:15:19;;;;;;;4.60;2.60;;;;;;;18.47;72.74;100474.75;106055;1273;24263;-76
2022/07/06 06:17:45;;;;;;;5.20;2.60;;;;;;;18.49;73.17;100478.40;105982;1273;25543;-77
2022/07/06 06:20:14;;;;;;;3.00;2.50;;;;;;;18.55;73.08;100475.66;106104;1275;22569;-77
2022/07/06 06:22:54;;;;;;;5.30;2.50;;;;;;;18.60;72.77;100471.73;106025;1274;22480;-75
2022/07/06 06:25:47;;;;;;;6.30;2.80;;;;;;;18.72;72.88;100474.09;106292;1275;22537;-77
2022/07/06 06:28:13;;;;;;;6.10;2.60;;;;;;;18.80;72.29;100474.09;106075;1275;25469;-76
2022/07/06 06:30:39;;;;;;;7.10;3.00;;;;;;;18.79;72.15;100463.47;106025;1274;22705;-76
2022/07/06 06:33:10;;;;;;;4.30;2.70;;;;;;;18.84;72.07;100470.55;105947;1275;22560;-75
2022/07/06 06:35:41;;;;;;;4.90;2.30;;;;;;;18.85;71.75;100467.66;106165;1274;25390;-75
2022/07/06 06:38:07;;;;;;;4.60;2.80;;;;;;;18.90;71.80;100466.92;106137;1274;24333;-76
2022/07/06 06:40:34;;;;;;;6.70;3.50;;;;;;;18.92;71.44;100467.35;106004;1275;25546;-76
2022/07/06 06:43:00;;;;;;;5.10;2.90;;;;;;;18.95;71.24;100470.05;105986;1274;22634;-79
2022/07/06 06:45:27;;;;;;;4.80;3.10;;;;;;;18.92;71.00;100466.29;106030;1275;22593;-76
2022/07/06 06:47:54;;;;;;;6.70;2.80;;;;;;;18.99;71.13;100474.36;106040;1274;25569;-77
2022/07/06 06:50:22;;;;;;;7.30;3.00;;;;;;;18.99;71.28;100474.19;106092;1274;24279;-76
2022/07/06 06:52:50;;;;;;;4.60;3.20;;;;;;;19.06;71.29;100478.17;105865;1275;22666;-77
2022/07/06 06:55:16;;;;;;;5.30;2.80;;;;;;;19.14;70.88;100478.77;106198;1274;22602;-76
2022/07/06 06:57:42;;;;;;;7.10;2.70;;;;;;;19.08;70.43;100479.52;106087;1275;22543;-77
2022/07/06 07:00:09;;;;;;;5.90;3.20;;;;;;;19.03;70.54;100480.80;106168;1274;23659;-77
2022/07/06 07:02:35;;;;;;;5.60;3.00;;;;;;;19.10;70.67;100485.02;105645;1281;22589;-79
2022/07/06 07:05:03;;;;;;;4.50;4.00;;;;;;;19.14;70.78;100480.88;105779;1278;22566;-86
2022/07/06 07:07:29;;;;;;;6.00;3.40;;;;;;;19.25;70.93;100476.86;105705;1278;25561;-78
2022/07/06 07:09:55;;;;;;;4.50;3.90;;;;;;;19.35;70.61;100476.05;105696;1278;25341;-79
2022/07/06 07:12:21;;;;;;;6.10;3.90;;;;;;;19.38;70.04;100477.89;105760;1279;24243;-77
2022/07/06 07:14:47;;;;;;;6.60;4.40;;;;;;;19.46;70.31;100476.45;105868;1278;22672;-76
2022/07/06 07:17:14;;;;;;;5.80;4.90;;;;;;;19.57;69.87;100473.64;105956;1281;22574;-76
2022/07/06 07:19:40;;;;;;;7.00;4.70;;;;;;;19.58;69.41;100475.95;106268;1278;24024;-75
2022/07/06 07:22:06;;;;;;;5.40;4.90;;;;;;;19.55;69.68;100481.95;106586;1274;22577;-76
2022/07/06 07:24:33;;;;;;;5.80;4.70;;;;;;;19.60;69.79;100482.45;106610;1274;22813;-74
2022/07/06 07:27:00;;;;;;;8.10;5.00;;;;;;;19.68;69.93;100478.01;106637;1274;24307;-76
2022/07/06 07:29:26;;;;;;;5.00;4.50;;;;;;;19.72;69.63;100482.99;105761;1282;22555;-79
2022/07/06 07:31:52;;;;;;;6.80;4.70;;;;;;;19.72;69.65;100482.27;105882;1280;22650;-76
2022/07/06 07:34:18;;;;;;;6.00;4.20;;;;;;;19.79;69.55;100479.25;105637;1281;22582;-77
2022/07/06 07:36:45;;;;;;;3.60;3.20;;;;;;;19.89;69.31;100474.89;105522;1281;25712;-77
2022/07/06 07:39:11;;;;;;;6.20;3.00;;;;;;;20.04;69.04;100474.39;105498;1281;25440;-77
2022/07/06 07:41:37;;;;;;;4.90;3.20;;;;;;;20.16;68.66;100476.31;105599;1281;22731;-79
2022/07/06 07:44:04;;;;;;;3.40;2.80;;;;;;;20.31;68.12;100479.58;105404;1281;22742;-76
2022/07/06 07:46:30;;;;;;;7.10;3.00;;;;;;;20.35;67.22;100479.37;104946;1287;22553;-77
2022/07/06 07:48:57;;;;;;;3.40;2.30;;;;;;;20.44;67.72;100485.91;105508;1282;22618;-77
2022/07/06 07:51:23;;;;;;;3.20;2.00;;;;;;;20.50;67.12;100488.27;105676;1280;22705;-75
2022/07/06 07:53:51;;;;;;;2.40;2.10;;;;;;;20.53;66.40;100491.01;105784;1280;22548;-76
2022/07/06 07:56:17;;;;;;;5.20;2.00;;;;;;;20.48;65.02;100490.70;105750;1280;25455;-77
2022/07/06 07:58:43;;;;;;;3.60;1.50;;;;;;;20.45;64.85;100490.52;105696;1278;22541;-75
2022/07/06 08:01:10;;;;;;;3.00;1.40;;;;;;;20.48;64.97;100493.58;105599;1281;22577;-76
2022/07/06 08:03:36;;;;;;;6.30;1.90;;;;;;;20.58;64.28;100495.75;105552;1281;22860;-78
2022/07/06 08:06:03;;;;;;;5.00;1.70;;;;;;;20.72;64.19;100492.75;105521;1281;22648;-79
2022/07/06 08:08:31;;;;;;;4.30;1.60;;;;;;;20.90;64.32;100492.61;105671;1280;24031;-77
2022/07/06 08:10:57;;;;;;;3.60;1.60;;;;;;;20.99;63.87;100492.16;105734;1275;25291;-78
2022/07/06 08:13:44;;;;;;;6.20;1.50;;;;;;;21.07;63.10;100489.96;106030;1272;22611;-76
2022/07/06 08:16:10;;;;;;;2.90;1.30;;;;;;;21.08;63.41;100492.79;106026;1273;25229;-76
2022/07/06 08:18:37;;;;;;;3.20;1.40;;;;;;;21.03;62.30;100495.02;106142;1277;25278;-78
2022/07/06 08:21:03;;;;;;;3.90;1.40;;;;;;;20.87;61.54;100489.85;105854;1278;25651;-79
2022/07/06 08:23:50;;;;;;;1.70;1.30;;;;;;;20.89;61.56;100489.95;105984;1278;22774;-78
2022/07/06 08:26:16;;;;;;;2.10;1.50;;;;;;;20.96;61.09;100484.65;106023;1277;24820;-78
2022/07/06 08:28:43;;;;;;;3.80;1.50;;;;;;;20.97;60.85;100490.31;106003;1278;25273;-77
2022/07/06 08:31:10;;;;;;;2.30;1.60;;;;;;;21.01;60.13;100486.66;106456;1277;23102;-78
2022/07/06 08:33:56;;;;;;;2.60;1.40;;;;;;;20.92;58.92;100483.19;105862;1277;24880;-78
2022/07/06 08:36:23;;;;;;;2.30;1.00;;;;;;;20.99;59.13;100480.33;105903;1274;22756;-78
2022/07/06 08:38:50;;;;;;;2.10;1.20;;;;;;;20.99;58.57;100476.06;106360;1274;25267;-76
2022/07/06 08:41:18;;;;;;;1.30;1.20;;;;;;;21.00;58.55;100472.94;106175;1275;22708;-76
2022/07/06 08:43:52;;;;;;;3.70;1.60;;;;;;;21.14;59.01;100473.10;106301;1274;22527;-76
2022/07/06 08:46:20;;;;;;;1.30;0.90;;;;;;;21.33;57.83;100473.05;106298;1274;22665;-76
2022/07/06 08:48:48;;;;;;;4.60;1.10;;;;;;;21.42;56.65;100472.36;106403;1275;26515;-77
2022/07/06 08:51:15;;;;;;;3.60;0.80;;;;;;;21.55;55.66;100474.59;106478;1276;22554;-77
2022/07/06 08:53:42;;;;;;;1.00;0.70;;;;;;;21.61;55.10;100476.92;106795;1274;25587;-74
2022/07/06 08:56:09;;;;;;;2.30;1.00;;;;;;;21.68;54.12;100479.23;106287;1275;24404;-78
2022/07/06 08:58:36;;;;;;;3.60;1.10;;;;;;;21.81;53.67;100487.36;106035;1273;22578;-77
2022/07/06 09:01:02;;;;;;;3.90;0.90;;;;;;;21.94;53.07;100490.92;106065;1274;24282;-76
2022/07/06 09:03:29;;;;;;;2.90;0.70;;;;;;;22.11;52.56;100490.39;106089;1274;25700;-75
2022/07/06 09:06:01;;;;;;;1.10;0.50;;;;;;;22.26;51.83;100489.17;106021;1274;25309;-78
2022/07/06 09:08:31;;;;;;;0.80;0.80;;;;;;;22.37;50.09;100486.77;106221;1274;22538;-81
2022/07/06 09:10:58;;;;;;;1.60;0.80;;;;;;;22.51;50.76;100489.05;106180;1274;22550;-82
2022/07/06 09:13:24;;;;;;;2.70;0.80;;;;;;;22.69;51.18;100484.23;105990;1274;22715;-79
2022/07/06 09:15:51;;;;;;;1.00;0.80;;;;;;;22.90;50.59;100480.90;106060;1274;22544;-77
2022/07/06 09:18:37;;;;;;;1.80;0.70;;;;;;;23.07;49.73;100482.73;105949;1273;22541;-83
2022/07/06 09:21:04;;;;;;;2.00;0.60;;;;;;;23.16;48.96;100481.50;106023;1273;25392;-76
2022/07/06 09:23:31;;;;;;;1.50;0.70;;;;;;;23.23;47.76;100480.91;106080;1274;22568;-82
2022/07/06 09:25:58;;;;;;;2.70;0.80;;;;;;;23.19;46.53;100479.15;106237;1274;22544;-80
2022/07/06 09:28:40;;;;;;;4.00;0.90;;;;;;;23.16;46.32;100479.36;106044;1275;22576;-76
2022/07/06 09:31:07;;;;;;;4.80;1.10;;;;;;;23.18;46.81;100468.06;106074;1274;22555;-77
2022/07/06 09:33:54;;;;;;;1.50;0.70;;;;;;;23.35;46.86;100462.05;105963;1274;25488;-78
2022/07/06 09:36:44;;;;;;;1.40;0.60;;;;;;;23.44;47.04;100466.21;105732;1281;23946;-78
2022/07/06 09:39:23;;;;;;;1.50;0.70;;;;;;;23.45;46.51;100469.69;105684;1281;22562;-78
2022/07/06 09:42:00;;;;;;;1.90;0.60;;;;;;;23.41;46.98;100467.98;105887;1279;23993;-78
2022/07/06 09:44:32;;;;;;;1.50;0.60;;;;;;;23.23;45.47;100467.59;105885;1279;22594;-77
2022/07/06 09:47:01;;;;;;;1.70;0.60;;;;;;;22.96;45.91;100468.82;105689;1280;22521;-77
2022/07/06 09:49:27;;;;;;;0.90;0.60;;;;;;;23.05;45.49;100468.68;105303;1284;22785;-79
2022/07/06 09:52:02;;;;;;;0.60;0.50;;;;;;;23.15;45.64;100477.08;105213;1284;25413;-78
2022/07/06 09:54:29;;;;;;;2.40;0.70;;;;;;;23.40;45.53;100474.33;105517;1278;25354;-77
2022/07/06 09:56:57;;;;;;;0.90;0.60;;;;;;;23.71;44.71;100474.23;105620;1278;22640;-78
2022/07/06 09:59:29;;;;;;;2.10;0.50;;;;;;;23.84;43.79;100468.73;106023;1277;25383;-77
2022/07/06 10:01:58;;;;;;;1.70;0.70;;;;;;;23.69;42.66;100468.41;105348;1279;22579;-77
2022/07/06 10:04:26;;;;;;;3.40;0.70;;;;;;;23.65;43.38;100464.69;105312;1280;25510;-77
2022/07/06 10:06:54;;;;;;;3.90;0.90;;;;;;;23.89;44.22;100460.13;105476;1281;22554;-76
2022/07/06 10:09:25;;;;;;;2.00;0.90;;;;;;;24.12;44.31;100459.20;105424;1283;22592;-76
2022/07/06 10:11:53;;;;;;;2.20;0.70;;;;;;;24.36;43.61;100462.20;105521;1279;22541;-75
2022/07/06 10:14:22;;;;;;;3.50;0.50;;;;;;;24.63;43.20;100458.05;105543;1278;22728;-77
2022/07/06 10:16:49;;;;;;;0.70;0.60;;;;;;;24.89;42.56;100456.90;105617;1277;25522;-78
2022/07/06 10:19:18;;;;;;;1.90;0.90;;;;;;;24.93;41.93;100456.27;105478;1278;25397;-77
2022/07/06 10:21:45;;;;;;;0.70;0.50;;;;;;;24.86;40.67;100461.17;105869;1278;22573;-78
2022/07/06 10:24:12;;;;;;;1.70;0.60;;;;;;;24.71;40.81;100454.81;105755;1278;24226;-78
2022/07/06 10:26:40;;;;;;;7.70;0.90;;;;;;;24.51;40.30;100462.06;105681;1279;25458;-74
2022/07/06 10:29:06;;;;;;;7.40;1.50;;;;;;;24.27;40.11;100463.68;105709;1277;24372;-76
2022/07/06 10:31:37;;;;;;;2.10;1.00;;;;;;;24.14;40.93;100470.62;105708;1278;24368;-78
2022/07/06 10:34:06;;;;;;;1.50;0.70;;;;;;;24.06;40.64;100477.02;105636;1279;24334;-79
2022/07/06 10:36:37;;;;;;;2.00;0.90;;;;;;;23.98;41.30;100482.59;105569;1278;25354;-78
2022/07/06 10:41:52;;;;;;;1.90;0.80;;;;;;;24.06;40.04;100479.71;106002;1273;25520;-78
2022/07/06 10:44:21;;;;;;;1.30;0.70;;;;;;;23.94;40.38;100476.02;105946;1273;25356;-90
2022/07/06 10:46:58;;;;;;;1.40;0.50;;;;;;;23.94;40.67;100476.34;106055;1273;22569;-76
2022/07/06 10:49:27;;;;;;;1.00;0.70;;;;;;;24.27;40.29;100475.19;106156;1274;23140;-76
2022/07/06 10:52:17;;;;;;;2.00;0.70;;;;;;;24.52;38.65;100476.45;105948;1274;22705;-78
2022/07/06 10:54:43;;;;;;;2.40;0.70;;;;;;;24.60;37.66;100473.94;105840;1275;22562;-76
2022/07/06 10:57:15;;;;;;;1.40;0.40;;;;;;;24.44;37.49;100474.42;105922;1275;22548;-76
2022/07/06 10:59:41;;;;;;;1.00;0.50;;;;;;;24.41;38.03;100475.71;106050;1275;24338;-77
2022/07/06 11:02:14;;;;;;;2.10;0.60;;;;;;;24.34;38.34;100467.72;106083;1274;22580;-77
2022/07/06 11:04:43;;;;;;;1.40;0.70;;;;;;;24.29;38.63;100472.02;106206;1273;26539;-76
2022/07/06 11:07:12;;;;;;;1.20;0.70;;;;;;;24.24;39.01;100481.15;106058;1273;25419;-78
2022/07/06 11:09:42;;;;;;;1.20;0.60;;;;;;;24.17;39.28;100483.40;106063;1273;23949;-79
2022/07/06 11:12:16;;;;;;;2.50;0.80;;;;;;;24.02;39.15;100485.54;106197;1273;22584;-79
2022/07/06 11:14:42;;;;;;;1.10;0.60;;;;;;;24.03;39.17;100484.27;106289;1274;22626;-77
2022/07/06 11:17:10;;;;;;;3.50;0.80;;;;;;;24.27;38.77;100481.27;106045;1274;24311;-80
2022/07/06 11:19:37;;;;;;;2.90;0.90;;;;;;;24.58;38.51;100476.58;106052;1273;22867;-78
2022/07/06 11:22:08;;;;;;;1.80;1.10;;;;;;;24.86;38.29;100471.45;105869;1274;25434;-77
2022/07/06 11:24:40;;;;;;;1.20;0.70;;;;;;;24.93;37.98;100469.20;106082;1274;22567;-75
2022/07/06 11:27:08;;;;;;;1.00;0.60;;;;;;;24.88;37.90;100469.35;106127;1273;22535;-76